Time;durP1;ratioP1;P1;durP2;ratioP2;P2;SDS_P1;SDS_P2;PMS_P1;PMS_P2;Temp;Humidity;BMP_temperature;BMP_pressure;BME280_temperature;BME280_humidity;BME280_pressure;Samples;Min_cycle;Max_cycle;Signal;HPM_P1;HPM_P2
2022/02/16 00:00:28;;;;;;;10.23;9.13;;;6.10;99.90;;;;;;5011853;28;20246;-50
2022/02/16 00:02:53;;;;;;;12.13;10.27;;;6.00;99.90;;;;;;5013046;28;20677;-55
2022/02/16 00:05:19;;;;;;;10.97;9.87;;;6.00;99.90;;;;;;5012366;28;20192;-51
2022/02/16 00:07:47;;;;;;;11.03;9.90;;;6.00;99.90;;;;;;5013071;28;20210;-58
2022/02/16 00:10:14;;;;;;;9.93;8.93;;;5.90;99.90;;;;;;5008370;28;20553;-54
2022/02/16 00:12:41;;;;;;;11.57;9.80;;;5.90;99.90;;;;;;5011109;28;20279;-56
2022/02/16 00:15:08;;;;;;;10.77;9.67;;;5.90;99.90;;;;;;5012602;28;20184;-56
2022/02/16 00:17:35;;;;;;;10.80;9.70;;;5.80;99.90;;;;;;4990516;28;20192;-57
2022/02/16 00:20:01;;;;;;;10.93;9.70;;;5.80;99.90;;;;;;5007105;28;20246;-55
2022/02/16 00:22:26;;;;;;;10.10;9.07;;;5.70;99.90;;;;;;5011234;28;20185;-55
2022/02/16 00:24:52;;;;;;;10.10;9.00;;;5.80;99.90;;;;;;5012731;28;20203;-55
2022/02/16 00:27:17;;;;;;;9.80;8.80;;;5.80;99.90;;;;;;5012638;28;20192;-57
2022/02/16 00:29:43;;;;;;;9.60;8.17;;;5.80;99.90;;;;;;5012114;28;20200;-56
2022/02/16 00:32:13;;;;;;;10.03;8.90;;;5.80;99.90;;;;;;5011905;28;20195;-54
2022/02/16 00:34:38;;;;;;;10.27;9.17;;;5.70;99.90;;;;;;5011888;28;20169;-52
2022/02/16 00:37:04;;;;;;;9.90;8.90;;;5.60;99.90;;;;;;5012648;28;20177;-53
2022/02/16 00:39:29;;;;;;;10.27;8.93;;;5.70;99.90;;;;;;5011789;28;20216;-55
2022/02/16 00:41:55;;;;;;;10.40;9.30;;;5.70;99.90;;;;;;5012865;28;20203;-55
2022/02/16 00:44:21;;;;;;;11.13;9.93;;;5.70;99.90;;;;;;5011728;28;20185;-55
2022/02/16 00:46:46;;;;;;;9.63;8.63;;;5.70;99.90;;;;;;5012286;28;20183;-56
2022/02/16 00:49:12;;;;;;;10.60;8.90;;;5.80;99.90;;;;;;5012379;28;20201;-56
2022/02/16 00:51:38;;;;;;;9.60;8.60;;;5.80;99.90;;;;;;5012300;28;20262;-57
2022/02/16 00:54:04;;;;;;;10.80;9.20;;;5.70;99.90;;;;;;5012652;28;20176;-58
2022/02/16 00:56:30;;;;;;;8.17;7.33;;;5.70;99.90;;;;;;5012094;28;20187;-58
2022/02/16 00:58:55;;;;;;;9.57;8.67;;;5.70;99.90;;;;;;5012361;28;20205;-58
2022/02/16 01:01:21;;;;;;;10.90;9.60;;;5.70;99.90;;;;;;5011851;28;20638;-51
2022/02/16 01:03:46;;;;;;;9.73;8.73;;;5.80;99.90;;;;;;5012325;28;20184;-54
2022/02/16 01:06:12;;;;;;;9.37;8.37;;;5.70;99.90;;;;;;5012319;28;20251;-58
2022/02/16 01:08:38;;;;;;;9.80;8.13;;;5.60;99.90;;;;;;5011409;28;20196;-53
2022/02/16 01:11:03;;;;;;;10.03;9.03;;;5.50;99.90;;;;;;5011963;28;20211;-55
2022/02/16 01:13:29;;;;;;;9.73;8.60;;;5.50;99.90;;;;;;5011701;28;20184;-53
2022/02/16 01:15:55;;;;;;;9.20;8.27;;;5.60;99.90;;;;;;5012162;28;20242;-57
2022/02/16 01:18:21;;;;;;;9.43;8.43;;;5.50;99.90;;;;;;5040306;22;20220;-52
2022/02/16 01:20:46;;;;;;;9.53;8.53;;;5.50;99.90;;;;;;5029415;28;20230;-55
2022/02/16 01:23:13;;;;;;;9.57;8.63;;;5.60;99.90;;;;;;5030053;28;20186;-54
2022/02/16 01:25:38;;;;;;;9.53;8.30;;;5.50;99.90;;;;;;5029912;28;20222;-52
2022/02/16 01:28:04;;;;;;;11.33;9.10;;;5.40;99.90;;;;;;5031134;28;20685;-56
2022/02/16 01:30:30;;;;;;;9.37;8.37;;;5.20;99.90;;;;;;5031020;28;20653;-54
2022/02/16 01:32:55;;;;;;;9.73;8.73;;;5.10;99.90;;;;;;5030483;28;20183;-54
2022/02/16 01:35:21;;;;;;;8.50;7.60;;;5.00;99.90;;;;;;5031112;28;20175;-54
2022/02/16 01:37:46;;;;;;;10.73;8.43;;;5.00;99.90;;;;;;5030942;28;20188;-57
2022/02/16 01:40:12;;;;;;;10.03;8.17;;;5.00;99.90;;;;;;5031290;28;20734;-57
2022/02/16 01:42:38;;;;;;;8.60;7.70;;;5.00;99.90;;;;;;5031203;28;20572;-54
2022/02/16 01:45:05;;;;;;;9.83;8.73;;;5.10;99.90;;;;;;5029879;28;20179;-55
2022/02/16 01:47:30;;;;;;;10.30;9.17;;;5.20;99.90;;;;;;5030482;28;20175;-53
2022/02/16 01:49:56;;;;;;;8.40;7.50;;;5.20;99.90;;;;;;5031082;28;20616;-55
2022/02/16 01:52:21;;;;;;;9.17;8.13;;;5.10;99.90;;;;;;5031211;28;20522;-57
2022/02/16 01:54:47;;;;;;;8.50;7.43;;;5.10;99.90;;;;;;5030667;28;20271;-56
2022/02/16 01:57:13;;;;;;;7.80;6.97;;;5.00;99.90;;;;;;5032012;28;20197;-57
2022/02/16 01:59:39;;;;;;;9.90;8.23;;;4.80;99.90;;;;;;5034685;28;20249;-54
2022/02/16 02:02:07;;;;;;;10.27;8.73;;;4.80;99.90;;;;;;5035352;28;20207;-55
2022/02/16 02:04:33;;;;;;;10.17;8.90;;;4.90;99.90;;;;;;5034716;28;20164;-57
2022/02/16 02:06:59;;;;;;;9.40;8.40;;;4.90;99.90;;;;;;5035188;28;20252;-56
2022/02/16 02:09:24;;;;;;;11.20;9.67;;;5.00;99.90;;;;;;5034448;28;20211;-52
2022/02/16 02:11:50;;;;;;;12.27;9.80;;;5.00;99.90;;;;;;5035004;28;20251;-53
2022/02/16 02:14:16;;;;;;;10.13;9.03;;;4.90;99.90;;;;;;5034962;28;20210;-54
2022/02/16 02:16:42;;;;;;;10.30;9.17;;;4.90;99.90;;;;;;5034150;28;20255;-55
2022/02/16 02:19:08;;;;;;;11.33;9.40;;;4.90;99.90;;;;;;5034542;28;20212;-54
2022/02/16 02:21:35;;;;;;;10.30;8.90;;;4.90;99.90;;;;;;5034728;28;20238;-55
2022/02/16 02:24:00;;;;;;;10.67;9.57;;;4.90;99.90;;;;;;5034396;28;20164;-54
2022/02/16 02:26:26;;;;;;;10.03;8.67;;;4.90;99.90;;;;;;5034497;28;20681;-53
2022/02/16 02:28:52;;;;;;;9.20;8.10;;;4.90;99.90;;;;;;5033977;28;20250;-53
2022/02/16 02:31:34;;;;;;;12.17;8.67;;;4.80;99.90;;;;;;5034238;28;20653;-57
2022/02/16 02:34:01;;;;;;;8.97;7.97;;;4.80;99.90;;;;;;5034445;28;20206;-55
2022/02/16 02:36:27;;;;;;;9.80;8.67;;;4.90;99.90;;;;;;5034715;28;20221;-55
2022/02/16 02:38:53;;;;;;;9.83;8.83;;;4.90;99.90;;;;;;5033744;28;20200;-57
2022/02/16 02:41:19;;;;;;;9.10;8.13;;;4.90;99.90;;;;;;5034320;28;20179;-57
2022/02/16 02:43:47;;;;;;;10.67;9.10;;;4.80;99.90;;;;;;5033778;28;20175;-56
2022/02/16 02:46:13;;;;;;;10.33;9.23;;;4.70;99.90;;;;;;5016649;28;20207;-57
2022/02/16 02:48:38;;;;;;;10.03;8.90;;;4.40;99.90;;;;;;5034400;28;20196;-57
2022/02/16 02:51:04;;;;;;;10.60;9.30;;;4.30;99.90;;;;;;5034448;28;20221;-56
2022/02/16 02:53:30;;;;;;;10.43;8.83;;;4.30;99.90;;;;;;5034587;28;20649;-57
2022/02/16 02:55:55;;;;;;;9.47;8.57;;;4.40;99.90;;;;;;5016263;28;20180;-57
2022/02/16 02:58:21;;;;;;;11.53;8.80;;;4.40;99.90;;;;;;5034167;28;20202;-55
2022/02/16 03:00:47;;;;;;;9.90;8.90;;;4.30;99.90;;;;;;5033646;28;20692;-58
2022/02/16 03:03:13;;;;;;;10.30;9.23;;;4.20;99.90;;;;;;5033758;28;20274;-56
2022/02/16 03:05:38;;;;;;;10.83;9.73;;;4.10;99.90;;;;;;5033926;28;20279;-58
2022/02/16 03:08:04;;;;;;;10.60;8.60;;;4.00;99.90;;;;;;5032653;28;20267;-58
2022/02/16 03:10:30;;;;;;;10.10;8.73;;;4.00;99.90;;;;;;5032519;28;20285;-56
2022/02/16 03:12:56;;;;;;;10.53;9.43;;;4.10;99.90;;;;;;5033569;28;20518;-53
2022/02/16 03:15:21;;;;;;;11.20;9.73;;;4.30;99.90;;;;;;5033867;28;20262;-56
2022/02/16 03:17:47;;;;;;;10.07;9.07;;;4.40;99.90;;;;;;5033370;28;20218;-55
2022/02/16 03:20:13;;;;;;;10.37;8.80;;;4.40;99.90;;;;;;5033513;28;20238;-58
2022/02/16 03:22:39;;;;;;;9.80;8.80;;;4.40;99.90;;;;;;5033877;28;20168;-55
2022/02/16 03:25:07;;;;;;;12.03;9.77;;;4.30;99.90;;;;;;5033182;28;20859;-58
2022/02/16 03:27:33;;;;;;;9.70;8.70;;;4.30;99.90;;;;;;5034188;28;20250;-55
2022/02/16 03:30:00;;;;;;;9.67;8.47;;;4.20;99.90;;;;;;5015480;28;20202;-57
2022/02/16 03:32:25;;;;;;;9.50;8.50;;;4.20;99.90;;;;;;5034195;28;20664;-52
2022/02/16 03:34:51;;;;;;;9.43;8.43;;;4.00;99.90;;;;;;5015414;28;20175;-57
2022/02/16 03:37:16;;;;;;;9.67;8.67;;;3.90;99.90;;;;;;5032814;28;20176;-55
2022/02/16 03:39:42;;;;;;;9.53;8.53;;;3.90;99.90;;;;;;5032617;28;20545;-58
2022/02/16 03:42:08;;;;;;;9.77;8.43;;;3.90;99.90;;;;;;5033239;28;20812;-57
2022/02/16 03:44:34;;;;;;;9.80;8.70;;;4.00;99.90;;;;;;5032193;28;20663;-55
2022/02/16 03:46:59;;;;;;;10.57;9.37;;;3.90;99.90;;;;;;5033132;28;20171;-56
2022/02/16 03:49:26;;;;;;;11.53;9.37;;;3.90;99.90;;;;;;5033020;28;20553;-58
2022/02/16 03:51:52;;;;;;;12.37;9.87;;;3.80;99.90;;;;;;5033132;28;20172;-53
2022/02/16 03:54:18;;;;;;;10.50;9.40;;;3.80;99.90;;;;;;5033076;28;20172;-59
2022/02/16 03:56:44;;;;;;;11.40;10.00;;;3.80;99.90;;;;;;5032979;28;20172;-57
2022/02/16 03:59:10;;;;;;;11.30;10.03;;;3.90;99.90;;;;;;5032427;28;20192;-54
2022/02/16 04:01:36;;;;;;;11.20;10.07;;;4.00;99.90;;;;;;5033479;28;20660;-58
2022/02/16 04:04:01;;;;;;;11.37;10.00;;;4.00;99.90;;;;;;5033276;28;20176;-57
2022/02/16 04:06:27;;;;;;;10.97;9.77;;;3.90;99.90;;;;;;5031954;28;20172;-57
2022/02/16 04:08:52;;;;;;;11.70;10.03;;;3.80;99.90;;;;;;5033341;28;20203;-56
2022/02/16 04:11:20;;;;;;;11.10;9.57;;;3.70;99.90;;;;;;5033028;28;20176;-56
2022/02/16 04:13:47;;;;;;;11.27;9.47;;;3.80;99.90;;;;;;5032787;28;20179;-58
2022/02/16 04:16:13;;;;;;;12.03;10.73;;;3.70;99.90;;;;;;5032186;28;20181;-56
2022/02/16 04:18:39;;;;;;;11.70;9.70;;;3.80;99.90;;;;;;5032250;28;20223;-56
2022/02/16 04:21:04;;;;;;;10.73;9.63;;;3.80;99.90;;;;;;5031966;28;20213;-56
2022/02/16 04:23:30;;;;;;;12.27;10.30;;;3.80;99.90;;;;;;5032664;28;20183;-56
2022/02/16 04:25:55;;;;;;;11.00;9.40;;;3.80;99.90;;;;;;5031891;28;20203;-57
2022/02/16 04:28:21;;;;;;;10.17;9.07;;;3.80;99.90;;;;;;5031623;28;20215;-56
2022/02/16 04:30:48;;;;;;;10.87;9.47;;;3.70;99.90;;;;;;5031058;28;20172;-55
2022/02/16 04:33:14;;;;;;;10.57;9.37;;;3.70;99.90;;;;;;5031926;28;20172;-56
2022/02/16 04:35:39;;;;;;;9.23;8.33;;;3.70;99.90;;;;;;5032332;28;20547;-54
2022/02/16 04:38:05;;;;;;;9.73;8.73;;;3.70;99.90;;;;;;5031634;28;20203;-57
2022/02/16 04:40:31;;;;;;;10.10;8.37;;;3.60;99.90;;;;;;5032121;28;20541;-56
2022/02/16 04:42:56;;;;;;;8.73;7.83;;;3.60;99.90;;;;;;5031701;28;20187;-59
2022/02/16 04:45:22;;;;;;;8.80;7.93;;;3.40;99.90;;;;;;5031395;28;20176;-54
2022/02/16 04:47:48;;;;;;;8.03;7.23;;;3.30;99.90;;;;;;5032276;28;20210;-55
2022/02/16 04:50:13;;;;;;;9.27;7.20;;;3.20;99.90;;;;;;5031596;28;20180;-53
2022/02/16 04:52:39;;;;;;;7.90;6.93;;;3.20;99.90;;;;;;5030891;28;20238;-57
2022/02/16 04:55:07;;;;;;;8.20;7.13;;;3.20;99.90;;;;;;5031703;28;20245;-54
2022/02/16 04:57:33;;;;;;;8.37;7.23;;;3.20;99.90;;;;;;5032321;28;20187;-57
2022/02/16 04:59:59;;;;;;;9.20;8.03;;;3.30;99.90;;;;;;5031623;28;20210;-56
2022/02/16 05:02:28;;;;;;;16.03;14.33;;;3.40;99.90;;;;;;5032493;28;20199;-57
2022/02/16 05:04:55;;;;;;;12.50;11.30;;;3.60;99.90;;;;;;5031899;28;20199;-58
2022/02/16 05:07:21;;;;;;;9.07;8.13;;;3.60;99.90;;;;;;5031731;28;20672;-57
2022/02/16 05:09:47;;;;;;;7.57;6.80;;;3.80;99.90;;;;;;5031883;28;20223;-55
2022/02/16 05:12:13;;;;;;;8.00;6.50;;;3.90;99.90;;;;;;5031521;28;20180;-57
2022/02/16 05:14:39;;;;;;;8.20;7.23;;;4.00;99.90;;;;;;5031931;28;20180;-56
2022/02/16 05:17:04;;;;;;;7.20;6.50;;;4.10;99.90;;;;;;5031735;28;20176;-58
2022/02/16 05:19:30;;;;;;;7.60;6.80;;;4.20;99.90;;;;;;5031313;28;20207;-55
2022/02/16 05:21:56;;;;;;;7.53;6.60;;;4.20;99.90;;;;;;5032332;28;20676;-55
2022/02/16 05:24:22;;;;;;;7.50;6.70;;;4.20;99.90;;;;;;5013820;28;20222;-57
2022/02/16 05:26:48;;;;;;;7.93;6.83;;;4.30;99.90;;;;;;5013381;28;20225;-55
2022/02/16 05:29:13;;;;;;;9.00;8.10;;;4.30;99.90;;;;;;5031129;28;20198;-57
2022/02/16 05:31:39;;;;;;;13.77;11.03;;;4.40;99.90;;;;;;5031467;28;20180;-57
2022/02/16 05:34:05;;;;;;;11.80;10.20;;;4.40;99.90;;;;;;5031297;28;20645;-56
2022/02/16 05:36:31;;;;;;;12.67;10.33;;;4.30;99.90;;;;;;5031545;28;20180;-56
2022/02/16 05:38:56;;;;;;;10.37;9.30;;;4.40;99.90;;;;;;5031510;28;20207;-53
2022/02/16 05:41:22;;;;;;;12.37;10.00;;;4.40;99.90;;;;;;5031684;28;20180;-57
2022/02/16 05:43:48;;;;;;;12.93;10.80;;;4.30;99.90;;;;;;5031752;28;20545;-58
2022/02/16 05:46:13;;;;;;;9.77;8.57;;;4.30;99.90;;;;;;5031015;28;20172;-57
2022/02/16 05:48:39;;;;;;;10.30;9.20;;;4.30;99.90;;;;;;5031379;28;20205;-54
2022/02/16 05:51:04;;;;;;;9.53;8.17;;;4.30;99.90;;;;;;5031280;28;20226;-57
2022/02/16 05:53:30;;;;;;;8.23;7.43;;;4.30;99.90;;;;;;5020967;28;20230;-56
2022/02/16 05:55:55;;;;;;;10.27;8.00;;;4.30;99.90;;;;;;5031313;28;20180;-55
2022/02/16 05:58:21;;;;;;;9.30;8.33;;;4.20;99.90;;;;;;5031003;28;20192;-57
2022/02/16 06:00:47;;;;;;;13.73;10.97;;;4.20;99.90;;;;;;5031567;28;20518;-53
2022/02/16 06:03:12;;;;;;;13.00;10.37;;;4.10;99.90;;;;;;5030429;28;20172;-53
2022/02/16 06:05:38;;;;;;;10.53;9.40;;;4.10;99.90;;;;;;5031316;28;20168;-53
2022/02/16 06:08:04;;;;;;;10.10;8.63;;;4.10;99.90;;;;;;5031004;28;20175;-55
2022/02/16 06:10:30;;;;;;;10.53;8.27;;;4.10;99.90;;;;;;5030632;28;20184;-54
2022/02/16 06:12:58;;;;;;;11.00;8.03;;;4.20;99.90;;;;;;5031056;28;20172;-53
2022/02/16 06:15:23;;;;;;;9.03;7.83;;;4.20;99.90;;;;;;5030623;28;20192;-52
2022/02/16 06:17:49;;;;;;;9.57;7.90;;;4.30;99.90;;;;;;5031100;28;20653;-57
2022/02/16 06:20:15;;;;;;;9.30;7.30;;;4.30;99.90;;;;;;5025867;28;20219;-52
2022/02/16 06:22:41;;;;;;;8.00;7.20;;;4.30;99.90;;;;;;5030269;28;20179;-55
2022/02/16 06:25:07;;;;;;;8.70;7.30;;;4.50;99.90;;;;;;5030139;28;20247;-55
2022/02/16 06:27:34;;;;;;;7.77;6.47;;;4.60;99.90;;;;;;5030298;28;20176;-54
2022/02/16 06:30:01;;;;;;;8.70;6.97;;;4.50;99.90;;;;;;5027671;28;20223;-56
2022/02/16 06:32:27;;;;;;;7.07;6.33;;;4.50;99.90;;;;;;5030045;28;20208;-56
2022/02/16 06:34:52;;;;;;;7.60;6.80;;;4.40;99.90;;;;;;5030137;28;20233;-55
2022/02/16 06:37:18;;;;;;;7.00;6.13;;;4.40;99.90;;;;;;5029950;28;20180;-59
2022/02/16 06:39:44;;;;;;;7.30;6.37;;;4.30;99.90;;;;;;5030615;28;20572;-58
2022/02/16 06:42:09;;;;;;;7.53;6.73;;;4.30;99.90;;;;;;5031016;28;20180;-56
2022/02/16 06:44:35;;;;;;;7.53;6.77;;;4.20;99.90;;;;;;5032643;28;20237;-56
2022/02/16 06:47:00;;;;;;;8.00;6.97;;;4.20;99.90;;;;;;5034604;28;20518;-56
2022/02/16 06:49:26;;;;;;;8.70;7.80;;;4.20;99.90;;;;;;5033804;28;20199;-55
2022/02/16 06:51:52;;;;;;;8.57;7.40;;;4.30;99.90;;;;;;5034100;28;20183;-56
2022/02/16 06:54:18;;;;;;;8.90;7.80;;;4.30;99.90;;;;;;5033943;28;20183;-57
2022/02/16 06:56:43;;;;;;;9.47;7.30;;;4.40;99.90;;;;;;5034512;28;20183;-53
2022/02/16 06:59:09;;;;;;;8.47;7.57;;;4.60;99.90;;;;;;5033741;28;20200;-57
2022/02/16 07:01:35;;;;;;;9.20;8.20;;;4.80;99.90;;;;;;5016927;28;20182;-56
2022/02/16 07:04:00;;;;;;;8.50;7.23;;;5.00;99.90;;;;;;5034459;28;20649;-56
2022/02/16 07:06:26;;;;;;;8.20;7.30;;;5.20;99.90;;;;;;5033764;28;20214;-56
2022/02/16 07:08:51;;;;;;;8.03;7.20;;;5.30;99.90;;;;;;5034136;28;20188;-54
2022/02/16 07:11:17;;;;;;;8.63;7.23;;;5.30;99.90;;;;;;5033874;28;20183;-52
2022/02/16 07:13:42;;;;;;;7.53;6.60;;;5.30;99.90;;;;;;5034306;28;20187;-53
2022/02/16 07:16:08;;;;;;;7.73;6.70;;;5.30;99.90;;;;;;5031271;28;20559;-55
2022/02/16 07:18:43;;;;;;;7.53;6.70;;;5.30;99.90;;;;;;5030873;28;20221;-52
2022/02/16 07:21:10;;;;;;;7.17;6.30;;;5.40;99.90;;;;;;5041836;28;20175;-55
2022/02/16 07:23:38;;;;;;;6.77;6.07;;;5.50;99.90;;;;;;5033129;28;20171;-57
2022/02/16 07:26:05;;;;;;;6.73;6.03;;;5.70;99.90;;;;;;5033640;28;20175;-53
2022/02/16 07:28:32;;;;;;;8.50;6.93;;;5.90;99.90;;;;;;5032957;28;20242;-56
2022/02/16 07:30:58;;;;;;;7.43;6.63;;;6.20;99.90;;;;;;5033755;28;20518;-55
2022/02/16 07:33:23;;;;;;;7.77;6.40;;;6.30;99.90;;;;;;5033462;28;20222;-54
2022/02/16 07:35:50;;;;;;;8.13;6.47;;;6.40;99.90;;;;;;5032391;28;20258;-56
2022/02/16 07:38:16;;;;;;;6.27;5.60;;;6.40;99.90;;;;;;5032938;28;20187;-53
2022/02/16 07:40:42;;;;;;;6.67;5.87;;;6.40;99.90;;;;;;5033473;28;20222;-56
2022/02/16 07:43:07;;;;;;;6.97;5.97;;;6.40;99.90;;;;;;5033619;28;20163;-54
2022/02/16 07:45:33;;;;;;;8.60;6.37;;;6.30;99.90;;;;;;5033351;28;20660;-56
2022/02/16 07:48:00;;;;;;;9.13;7.77;;;6.30;99.90;;;;;;5033332;28;20172;-53
2022/02/16 07:50:26;;;;;;;9.13;8.17;;;6.30;99.90;;;;;;5033319;28;20172;-56
2022/02/16 07:52:52;;;;;;;10.37;8.10;;;6.40;99.90;;;;;;5033030;28;20184;-53
2022/02/16 07:55:18;;;;;;;9.57;7.97;;;6.60;99.90;;;;;;5032150;28;20183;-53
2022/02/16 07:57:43;;;;;;;7.40;6.60;;;6.80;99.90;;;;;;5033435;28;20660;-57
2022/02/16 08:00:09;;;;;;;7.17;6.47;;;6.90;99.90;;;;;;5032705;28;20684;-57
2022/02/16 08:02:35;;;;;;;7.97;6.83;;;7.00;99.90;;;;;;5033118;28;20315;-57
2022/02/16 08:05:00;;;;;;;6.53;5.87;;;7.00;99.90;;;;;;5015381;28;20198;-55
2022/02/16 08:07:26;;;;;;;7.07;6.37;;;7.00;99.90;;;;;;5032943;28;20170;-53
2022/02/16 08:09:52;;;;;;;6.50;5.70;;;7.10;99.90;;;;;;5032712;28;20211;-56
2022/02/16 08:12:18;;;;;;;7.90;5.83;;;7.10;99.90;;;;;;5032729;28;20178;-56
2022/02/16 08:14:43;;;;;;;6.13;5.53;;;7.20;99.90;;;;;;5032720;28;20180;-53
2022/02/16 08:17:09;;;;;;;6.43;5.60;;;7.30;99.90;;;;;;5032656;28;20183;-54
2022/02/16 08:19:35;;;;;;;5.17;4.67;;;7.20;99.90;;;;;;5032317;28;20261;-55
2022/02/16 08:22:00;;;;;;;6.20;4.90;;;7.30;99.90;;;;;;5032709;28;20203;-56
2022/02/16 08:24:27;;;;;;;5.77;5.17;;;7.30;99.90;;;;;;5032559;28;20634;-56
2022/02/16 08:26:53;;;;;;;7.47;5.47;;;7.30;99.90;;;;;;5032431;28;20237;-56
2022/02/16 08:29:20;;;;;;;5.80;5.20;;;7.20;99.90;;;;;;5031864;28;20207;-54
2022/02/16 08:31:46;;;;;;;5.03;4.53;;;7.20;99.90;;;;;;5032632;28;20258;-53
2022/02/16 08:34:13;;;;;;;6.27;5.40;;;7.20;99.90;;;;;;5031942;28;20183;-53
2022/02/16 08:36:39;;;;;;;5.73;5.17;;;7.20;99.90;;;;;;5014142;28;20649;-56
2022/02/16 08:39:05;;;;;;;6.03;4.90;;;7.10;99.90;;;;;;5032079;28;20214;-53
2022/02/16 08:41:30;;;;;;;5.57;4.53;;;7.20;99.90;;;;;;5030482;28;20187;-54
2022/02/16 08:43:56;;;;;;;5.97;5.00;;;7.20;99.90;;;;;;5031606;28;20175;-56
2022/02/16 08:46:21;;;;;;;6.17;4.90;;;7.10;99.90;;;;;;5031838;28;20230;-58
2022/02/16 08:48:47;;;;;;;5.30;4.77;;;6.90;99.90;;;;;;5031926;28;20688;-54
2022/02/16 08:51:13;;;;;;;4.97;4.43;;;6.90;99.90;;;;;;5031710;28;20183;-58
2022/02/16 08:53:38;;;;;;;4.67;3.87;;;6.70;99.90;;;;;;5031735;28;20727;-54
2022/02/16 08:56:05;;;;;;;5.37;4.00;;;6.60;99.90;;;;;;5031260;28;20176;-56
2022/02/16 08:58:31;;;;;;;4.10;3.70;;;6.50;99.90;;;;;;5028709;28;20552;-53
2022/02/16 09:00:57;;;;;;;4.07;3.70;;;6.30;99.90;;;;;;5031232;28;20195;-57
2022/02/16 09:03:24;;;;;;;4.07;3.57;;;6.20;99.90;;;;;;5031745;28;20217;-55
2022/02/16 09:05:50;;;;;;;3.67;3.30;;;6.20;99.90;;;;;;5031540;28;20172;-53
2022/02/16 09:08:18;;;;;;;4.17;3.70;;;6.40;99.90;;;;;;5030958;28;20214;-52
2022/02/16 09:10:44;;;;;;;4.03;3.43;;;6.40;99.90;;;;;;5031471;28;20163;-58
2022/02/16 09:13:09;;;;;;;3.43;3.03;;;6.50;99.90;;;;;;5031124;28;20203;-57
2022/02/16 09:15:35;;;;;;;6.60;4.03;;;6.60;99.90;;;;;;5030818;28;20585;-56
2022/02/16 09:18:01;;;;;;;3.53;3.23;;;6.80;99.90;;;;;;5030579;28;20183;-56
2022/02/16 09:20:27;;;;;;;4.10;3.10;;;7.00;99.90;;;;;;5031126;28;20204;-57
2022/02/16 09:22:53;;;;;;;3.90;3.37;;;7.20;99.90;;;;;;5031428;28;20626;-57
2022/02/16 09:25:19;;;;;;;3.93;3.50;;;7.60;99.90;;;;;;5031215;28;20274;-54
2022/02/16 09:27:47;;;;;;;3.40;3.00;;;8.10;99.90;;;;;;5031461;28;20184;-57
2022/02/16 09:30:13;;;;;;;3.10;2.80;;;9.10;99.90;;;;;;5028617;28;20215;-57
2022/02/16 09:32:39;;;;;;;2.70;2.50;;;11.20;99.90;;;;;;5031369;28;20172;-57
2022/02/16 09:35:05;;;;;;;2.50;2.30;;;14.30;99.90;;;;;;5031076;28;20172;-58
2022/02/16 09:37:31;;;;;;;2.60;2.20;;;17.50;99.90;;;;;;5028644;28;20172;-58
2022/02/16 09:39:57;;;;;;;2.43;2.23;;;19.80;97.70;;;;;;5030600;28;20203;-57
2022/02/16 09:42:23;;;;;;;2.60;2.40;;;21.60;91.90;;;;;;5031304;28;20182;-57
2022/02/16 09:45:01;;;;;;;1.93;1.83;;;21.60;88.50;;;;;;5030976;28;20172;-57
2022/02/16 09:47:30;;;;;;;2.50;2.30;;;21.20;87.70;;;;;;5031112;28;20584;-57
2022/02/16 09:49:56;;;;;;;2.10;2.00;;;20.50;87.00;;;;;;5030680;28;20250;-57
2022/02/16 09:52:22;;;;;;;2.50;2.13;;;20.70;90.00;;;;;;5030917;28;20207;-56
2022/02/16 09:54:48;;;;;;;2.28;1.95;;;21.90;88.50;;;;;;5031080;28;20174;-56
2022/02/16 09:57:14;;;;;;;1.98;1.83;;;23.30;85.50;;;;;;5031194;28;20179;-58
2022/02/16 09:59:40;;;;;;;2.08;1.88;;;24.90;82.70;;;;;;5030989;28;20196;-58
2022/02/16 10:02:12;;;;;;;2.92;2.00;;;27.10;74.70;;;;;;5030777;28;20222;-55
2022/02/16 10:04:40;;;;;;;2.08;1.98;;;28.50;64.50;;;;;;5029727;28;20172;-57
2022/02/16 10:07:30;;;;;;;1.80;1.70;;;28.50;59.50;;;;;;5029523;28;20191;-53
2022/02/16 10:10:13;;;;;;;2.33;2.13;;;28.30;60.00;;;;;;5016231;28;20287;-57
2022/02/16 10:12:39;;;;;;;3.55;2.25;;;26.80;59.80;;;;;;5030701;28;20176;-58
2022/02/16 10:15:08;;;;;;;2.45;2.25;;;24.90;60.00;;;;;;5030354;28;20176;-57
2022/02/16 10:17:34;;;;;;;2.30;2.20;;;22.90;63.20;;;;;;5030782;28;20171;-53
2022/02/16 10:20:05;;;;;;;2.60;2.40;;;21.00;66.50;;;;;;5033271;28;20211;-57
2022/02/16 10:22:45;;;;;;;2.80;2.50;;;20.00;70.60;;;;;;5034535;28;20238;-55
2022/02/16 10:25:18;;;;;;;2.93;2.70;;;18.80;73.50;;;;;;5031421;28;20188;-55
2022/02/16 10:28:04;;;;;;;2.80;2.60;;;17.90;77.90;;;;;;5034685;28;20174;-55
2022/02/16 10:30:30;;;;;;;2.23;2.10;;;17.00;79.30;;;;;;5033934;28;20199;-55
2022/02/16 10:33:15;;;;;;;2.60;2.40;;;16.50;82.00;;;;;;5034724;28;20230;-56
2022/02/16 10:35:40;;;;;;;2.73;2.37;;;16.30;83.70;;;;;;5032767;28;20168;-56
2022/02/16 10:38:06;;;;;;;2.53;2.33;;;16.00;86.30;;;;;;5034233;28;20180;-56
2022/02/16 10:40:31;;;;;;;3.07;2.40;;;15.40;87.30;;;;;;5033671;28;20188;-54
2022/02/16 10:43:01;;;;;;;3.07;2.63;;;14.70;89.50;;;;;;5034300;28;20175;-56
2022/02/16 10:45:29;;;;;;;2.80;2.60;;;13.90;92.00;;;;;;5034067;28;20172;-57
2022/02/16 10:48:01;;;;;;;3.20;2.70;;;13.30;93.60;;;;;;5033676;28;20855;-57
2022/02/16 10:50:29;;;;;;;2.87;2.57;;;12.70;94.90;;;;;;5034135;28;20245;-54
2022/02/16 10:53:04;;;;;;;2.53;2.33;;;12.10;97.40;;;;;;5033734;28;20183;-55
2022/02/16 10:55:41;;;;;;;2.90;2.50;;;11.70;96.90;;;;;;5033943;28;20159;-56
2022/02/16 10:58:10;;;;;;;2.93;2.63;;;11.60;97.40;;;;;;5033631;28;20186;-56
2022/02/16 11:00:38;;;;;;;3.27;2.43;;;11.50;97.50;;;;;;5016259;28;20184;-56
2022/02/16 11:03:05;;;;;;;2.23;2.03;;;11.50;98.50;;;;;;5033894;28;20171;-55
2022/02/16 11:05:32;;;;;;;2.90;2.60;;;11.40;98.50;;;;;;5031082;28;20648;-56
2022/02/16 11:07:59;;;;;;;3.10;2.37;;;11.20;99.90;;;;;;5033777;28;20190;-57
2022/02/16 11:10:27;;;;;;;3.50;2.27;;;10.90;99.90;;;;;;5033559;28;20222;-56
2022/02/16 11:12:53;;;;;;;3.30;2.57;;;10.70;99.90;;;;;;5031286;28;20210;-56
2022/02/16 11:15:21;;;;;;;3.67;2.20;;;10.70;99.90;;;;;;5033418;28;20589;-56
2022/02/16 11:17:46;;;;;;;2.17;1.97;;;10.40;99.90;;;;;;5033956;28;20200;-53
2022/02/16 11:20:26;;;;;;;2.73;2.53;;;10.20;99.90;;;;;;5033469;28;20247;-57
2022/02/16 11:22:57;;;;;;;2.50;2.30;;;10.20;99.90;;;;;;5034139;28;20591;-56
2022/02/16 11:25:35;;;;;;;2.50;2.30;;;10.20;99.90;;;;;;5033956;28;20518;-53
2022/02/16 11:28:01;;;;;;;2.30;2.10;;;10.20;99.90;;;;;;5033997;28;20183;-53
2022/02/16 11:30:38;;;;;;;2.63;2.10;;;10.10;99.90;;;;;;5032250;28;20214;-57
2022/02/16 11:33:14;;;;;;;2.47;2.20;;;10.20;99.90;;;;;;5033903;28;20187;-58
2022/02/16 11:35:56;;;;;;;2.50;2.00;;;10.20;99.90;;;;;;5032570;28;20179;-56
2022/02/16 11:38:39;;;;;;;2.30;2.10;;;10.40;99.90;;;;;;5033547;28;20238;-57
2022/02/16 11:41:23;;;;;;;2.27;2.03;;;10.50;99.90;;;;;;5033513;28;20183;-55
2022/02/16 11:43:54;;;;;;;2.40;2.20;;;10.60;99.90;;;;;;5049025;28;20180;-57
2022/02/16 11:46:44;;;;;;;3.13;2.10;;;10.70;99.90;;;;;;5033541;28;20171;-57
2022/02/16 11:49:25;;;;;;;3.30;2.40;;;10.80;99.90;;;;;;5028096;28;20608;-57
2022/02/16 11:51:51;;;;;;;2.40;2.00;;;10.70;99.90;;;;;;5033512;28;20246;-57
2022/02/16 11:54:53;;;;;;;2.33;2.13;;;10.60;99.90;;;;;;5033329;28;20749;-57
2022/02/16 11:57:46;;;;;;;3.00;2.30;;;10.50;99.90;;;;;;5033548;28;20152;-55
2022/02/16 12:00:20;;;;;;;2.33;2.13;;;10.40;99.90;;;;;;5033055;28;20234;-58
2022/02/16 12:02:55;;;;;;;2.50;2.30;;;10.30;99.90;;;;;;5033231;28;20181;-59
2022/02/16 12:05:45;;;;;;;3.00;2.10;;;10.30;99.90;;;;;;5032969;28;20171;-57
2022/02/16 12:08:48;;;;;;;2.90;2.10;;;10.30;99.90;;;;;;5033134;28;20565;-58
2022/02/16 12:11:19;;;;;;;2.63;2.20;;;10.30;99.90;;;;;;5032778;28;20633;-56
2022/02/16 12:13:58;;;;;;;2.33;2.10;;;10.30;99.90;;;;;;5033257;28;20191;-57
2022/02/16 12:16:30;;;;;;;2.33;2.03;;;10.10;99.90;;;;;;5032426;28;20270;-58
2022/02/16 12:19:00;;;;;;;3.20;2.40;;;9.90;99.90;;;;;;5032911;28;20230;-57
2022/02/16 12:21:47;;;;;;;3.03;2.20;;;9.70;99.90;;;;;;5032501;28;20168;-55
2022/02/16 12:24:17;;;;;;;3.83;2.40;;;9.60;99.90;;;;;;5032637;28;20191;-57
2022/02/16 12:26:45;;;;;;;3.40;2.83;;;9.40;99.90;;;;;;5032146;28;20176;-57
2022/02/16 12:29:14;;;;;;;3.47;2.97;;;9.30;99.90;;;;;;5032085;28;20195;-55
2022/02/16 12:31:42;;;;;;;4.40;3.00;;;9.40;99.90;;;;;;5032067;28;20180;-57
2022/02/16 12:34:10;;;;;;;3.23;2.93;;;9.40;99.90;;;;;;5032824;28;20703;-57
2022/02/16 12:36:50;;;;;;;4.83;2.77;;;9.40;99.90;;;;;;5032350;28;20645;-55
2022/02/16 12:39:16;;;;;;;2.90;2.70;;;9.30;99.90;;;;;;5032523;28;20188;-56
2022/02/16 12:41:46;;;;;;;3.00;2.70;;;9.10;99.90;;;;;;5032406;28;20182;-58
2022/02/16 12:44:15;;;;;;;3.00;2.37;;;9.00;99.90;;;;;;5032216;28;20580;-58
2022/02/16 12:46:45;;;;;;;1.47;1.37;;;8.90;99.90;;;;;;5032459;28;20241;-57
2022/02/16 12:49:12;;;;;;;1.20;1.10;;;8.80;99.90;;;;;;5032172;28;20204;-55
2022/02/16 12:51:40;;;;;;;1.63;1.20;;;8.80;99.90;;;;;;5032420;28;20522;-56